sensor_id;sensor_type;location;lat;lon;timestamp;P1;durP1;ratioP1;P2;durP2;ratioP2
49366;SDS011;35245;52.026;8.540;2023-03-16T00:02:20;8.00;;;2.92;;
49366;SDS011;35245;52.026;8.540;2023-03-16T00:04:49;5.65;;;2.53;;
49366;SDS011;35245;52.026;8.540;2023-03-16T00:07:16;9.18;;;3.45;;
49366;SDS011;35245;52.026;8.540;2023-03-16T00:09:45;5.75;;;2.95;;
49366;SDS011;35245;52.026;8.540;2023-03-16T00:12:13;9.20;;;3.35;;
49366;SDS011;35245;52.026;8.540;2023-03-16T00:14:42;7.88;;;3.08;;
49366;SDS011;35245;52.026;8.540;2023-03-16T00:17:09;7.55;;;2.75;;
49366;SDS011;35245;52.026;8.540;2023-03-16T00:19:43;8.40;;;3.15;;
49366;SDS011;35245;52.026;8.540;2023-03-16T00:22:13;7.53;;;2.92;;
49366;SDS011;35245;52.026;8.540;2023-03-16T00:24:40;8.18;;;3.60;;
49366;SDS011;35245;52.026;8.540;2023-03-16T00:27:08;8.65;;;3.47;;
49366;SDS011;35245;52.026;8.540;2023-03-16T00:29:39;5.47;;;3.08;;
49366;SDS011;35245;52.026;8.540;2023-03-16T00:32:12;7.70;;;3.35;;
49366;SDS011;35245;52.026;8.540;2023-03-16T00:34:41;5.35;;;3.03;;
49366;SDS011;35245;52.026;8.540;2023-03-16T00:37:08;9.02;;;3.13;;
49366;SDS011;35245;52.026;8.540;2023-03-16T00:39:39;9.48;;;3.22;;
49366;SDS011;35245;52.026;8.540;2023-03-16T00:42:07;8.95;;;3.13;;
49366;SDS011;35245;52.026;8.540;2023-03-16T00:44:34;7.03;;;2.92;;
49366;SDS011;35245;52.026;8.540;2023-03-16T00:47:01;8.02;;;2.83;;
49366;SDS011;35245;52.026;8.540;2023-03-16T00:49:29;6.57;;;2.75;;
49366;SDS011;35245;52.026;8.540;2023-03-16T00:51:59;8.93;;;3.35;;
49366;SDS011;35245;52.026;8.540;2023-03-16T00:54:27;9.80;;;2.88;;
49366;SDS011;35245;52.026;8.540;2023-03-16T00:56:58;8.90;;;3.42;;
49366;SDS011;35245;52.026;8.540;2023-03-16T00:59:25;6.32;;;3.08;;
49366;SDS011;35245;52.026;8.540;2023-03-16T01:01:53;9.57;;;3.20;;
49366;SDS011;35245;52.026;8.540;2023-03-16T01:04:20;11.70;;;3.85;;
49366;SDS011;35245;52.026;8.540;2023-03-16T01:06:48;7.90;;;3.35;;
49366;SDS011;35245;52.026;8.540;2023-03-16T01:09:15;9.05;;;3.13;;
49366;SDS011;35245;52.026;8.540;2023-03-16T01:11:42;6.20;;;2.83;;
49366;SDS011;35245;52.026;8.540;2023-03-16T01:14:11;6.78;;;3.03;;
49366;SDS011;35245;52.026;8.540;2023-03-16T01:16:38;7.05;;;3.15;;
49366;SDS011;35245;52.026;8.540;2023-03-16T01:19:10;8.60;;;3.27;;
49366;SDS011;35245;52.026;8.540;2023-03-16T01:21:37;8.43;;;3.13;;
49366;SDS011;35245;52.026;8.540;2023-03-16T01:24:04;8.23;;;2.75;;
49366;SDS011;35245;52.026;8.540;2023-03-16T01:26:32;4.55;;;2.47;;
49366;SDS011;35245;52.026;8.540;2023-03-16T01:28:59;7.95;;;2.80;;
49366;SDS011;35245;52.026;8.540;2023-03-16T01:31:27;9.27;;;2.70;;
49366;SDS011;35245;52.026;8.540;2023-03-16T01:33:56;6.20;;;2.60;;
49366;SDS011;35245;52.026;8.540;2023-03-16T01:36:22;8.73;;;3.25;;
49366;SDS011;35245;52.026;8.540;2023-03-16T01:38:49;6.53;;;2.83;;
49366;SDS011;35245;52.026;8.540;2023-03-16T01:41:17;7.60;;;2.85;;
49366;SDS011;35245;52.026;8.540;2023-03-16T01:43:44;5.97;;;2.20;;
49366;SDS011;35245;52.026;8.540;2023-03-16T01:46:16;4.55;;;2.53;;
49366;SDS011;35245;52.026;8.540;2023-03-16T01:48:50;9.90;;;2.97;;
49366;SDS011;35245;52.026;8.540;2023-03-16T01:51:23;6.72;;;2.55;;
49366;SDS011;35245;52.026;8.540;2023-03-16T01:53:52;9.02;;;2.95;;
49366;SDS011;35245;52.026;8.540;2023-03-16T01:56:21;5.32;;;2.47;;
49366;SDS011;35245;52.026;8.540;2023-03-16T01:58:51;6.93;;;2.75;;
49366;SDS011;35245;52.026;8.540;2023-03-16T02:01:22;10.10;;;3.40;;
49366;SDS011;35245;52.026;8.540;2023-03-16T02:03:52;6.13;;;2.60;;
49366;SDS011;35245;52.026;8.540;2023-03-16T02:06:22;5.30;;;2.22;;
49366;SDS011;35245;52.026;8.540;2023-03-16T02:08:49;7.50;;;2.67;;
49366;SDS011;35245;52.026;8.540;2023-03-16T02:11:19;4.47;;;2.55;;
49366;SDS011;35245;52.026;8.540;2023-03-16T02:13:46;7.07;;;2.60;;
49366;SDS011;35245;52.026;8.540;2023-03-16T02:16:13;8.40;;;2.83;;
49366;SDS011;35245;52.026;8.540;2023-03-16T02:18:43;6.38;;;3.03;;
49366;SDS011;35245;52.026;8.540;2023-03-16T02:21:13;9.05;;;2.60;;
49366;SDS011;35245;52.026;8.540;2023-03-16T02:23:44;7.93;;;3.22;;
49366;SDS011;35245;52.026;8.540;2023-03-16T02:26:14;6.60;;;2.50;;
49366;SDS011;35245;52.026;8.540;2023-03-16T02:28:48;8.10;;;2.58;;
49366;SDS011;35245;52.026;8.540;2023-03-16T02:31:21;7.22;;;2.75;;
49366;SDS011;35245;52.026;8.540;2023-03-16T02:33:48;10.07;;;2.55;;
49366;SDS011;35245;52.026;8.540;2023-03-16T02:36:16;7.70;;;2.65;;
49366;SDS011;35245;52.026;8.540;2023-03-16T02:38:44;5.28;;;2.20;;
49366;SDS011;35245;52.026;8.540;2023-03-16T02:41:13;5.68;;;2.25;;
49366;SDS011;35245;52.026;8.540;2023-03-16T02:43:42;3.92;;;1.85;;
49366;SDS011;35245;52.026;8.540;2023-03-16T02:46:12;6.68;;;2.42;;
49366;SDS011;35245;52.026;8.540;2023-03-16T02:48:42;6.75;;;2.13;;
49366;SDS011;35245;52.026;8.540;2023-03-16T02:51:11;9.15;;;2.35;;
49366;SDS011;35245;52.026;8.540;2023-03-16T02:53:38;5.93;;;2.15;;
49366;SDS011;35245;52.026;8.540;2023-03-16T02:56:05;10.25;;;2.25;;
49366;SDS011;35245;52.026;8.540;2023-03-16T02:58:33;6.25;;;1.65;;
49366;SDS011;35245;52.026;8.540;2023-03-16T03:00:59;7.10;;;2.47;;
49366;SDS011;35245;52.026;8.540;2023-03-16T03:03:27;12.48;;;2.25;;
49366;SDS011;35245;52.026;8.540;2023-03-16T03:05:56;5.72;;;2.10;;
49366;SDS011;35245;52.026;8.540;2023-03-16T03:08:23;7.03;;;1.73;;
49366;SDS011;35245;52.026;8.540;2023-03-16T03:10:50;5.22;;;2.03;;
49366;SDS011;35245;52.026;8.540;2023-03-16T03:13:17;4.30;;;2.03;;
49366;SDS011;35245;52.026;8.540;2023-03-16T03:15:44;6.13;;;1.90;;
49366;SDS011;35245;52.026;8.540;2023-03-16T03:18:11;4.22;;;1.60;;
49366;SDS011;35245;52.026;8.540;2023-03-16T03:20:38;8.48;;;2.13;;
49366;SDS011;35245;52.026;8.540;2023-03-16T03:23:06;5.90;;;1.77;;
49366;SDS011;35245;52.026;8.540;2023-03-16T03:25:33;8.07;;;2.30;;
49366;SDS011;35245;52.026;8.540;2023-03-16T03:28:01;5.68;;;1.88;;
49366;SDS011;35245;52.026;8.540;2023-03-16T03:30:30;5.10;;;1.85;;
49366;SDS011;35245;52.026;8.540;2023-03-16T03:32:57;4.72;;;1.88;;
49366;SDS011;35245;52.026;8.540;2023-03-16T03:35:25;5.22;;;1.73;;
49366;SDS011;35245;52.026;8.540;2023-03-16T03:37:52;8.55;;;3.35;;
49366;SDS011;35245;52.026;8.540;2023-03-16T03:40:21;4.25;;;1.88;;
49366;SDS011;35245;52.026;8.540;2023-03-16T03:42:48;5.38;;;2.20;;
49366;SDS011;35245;52.026;8.540;2023-03-16T03:45:15;4.97;;;2.10;;
49366;SDS011;35245;52.026;8.540;2023-03-16T03:47:43;6.45;;;1.92;;
49366;SDS011;35245;52.026;8.540;2023-03-16T03:50:10;5.45;;;1.90;;
49366;SDS011;35245;52.026;8.540;2023-03-16T03:52:38;7.70;;;2.75;;
49366;SDS011;35245;52.026;8.540;2023-03-16T03:55:06;5.40;;;2.47;;
49366;SDS011;35245;52.026;8.540;2023-03-16T03:57:35;6.72;;;2.20;;
49366;SDS011;35245;52.026;8.540;2023-03-16T04:00:02;8.35;;;2.33;;
49366;SDS011;35245;52.026;8.540;2023-03-16T04:02:33;4.53;;;2.20;;
49366;SDS011;35245;52.026;8.540;2023-03-16T04:05:00;9.82;;;2.53;;
49366;SDS011;35245;52.026;8.540;2023-03-16T04:07:27;4.97;;;2.28;;
49366;SDS011;35245;52.026;8.540;2023-03-16T04:09:54;7.85;;;2.83;;
49366;SDS011;35245;52.026;8.540;2023-03-16T04:12:21;5.60;;;2.40;;
49366;SDS011;35245;52.026;8.540;2023-03-16T04:14:50;5.72;;;2.45;;
49366;SDS011;35245;52.026;8.540;2023-03-16T04:17:17;7.03;;;2.38;;
49366;SDS011;35245;52.026;8.540;2023-03-16T04:19:44;4.72;;;2.63;;
49366;SDS011;35245;52.026;8.540;2023-03-16T04:22:11;6.32;;;2.33;;
49366;SDS011;35245;52.026;8.540;2023-03-16T04:24:38;6.57;;;2.50;;
49366;SDS011;35245;52.026;8.540;2023-03-16T04:27:07;6.38;;;2.30;;
49366;SDS011;35245;52.026;8.540;2023-03-16T04:29:36;7.00;;;2.47;;
49366;SDS011;35245;52.026;8.540;2023-03-16T04:32:06;6.13;;;2.35;;
49366;SDS011;35245;52.026;8.540;2023-03-16T04:34:33;7.78;;;2.50;;
49366;SDS011;35245;52.026;8.540;2023-03-16T04:37:00;3.53;;;2.25;;
49366;SDS011;35245;52.026;8.540;2023-03-16T04:39:27;5.93;;;2.60;;
49366;SDS011;35245;52.026;8.540;2023-03-16T04:41:54;8.25;;;2.67;;
49366;SDS011;35245;52.026;8.540;2023-03-16T04:44:21;7.22;;;2.67;;
49366;SDS011;35245;52.026;8.540;2023-03-16T04:46:50;6.07;;;2.65;;
49366;SDS011;35245;52.026;8.540;2023-03-16T04:49:18;7.82;;;2.63;;
49366;SDS011;35245;52.026;8.540;2023-03-16T04:51:45;7.80;;;2.45;;
49366;SDS011;35245;52.026;8.540;2023-03-16T04:54:12;9.88;;;2.88;;
49366;SDS011;35245;52.026;8.540;2023-03-16T04:56:39;9.52;;;2.97;;
49366;SDS011;35245;52.026;8.540;2023-03-16T04:59:06;6.43;;;2.55;;
49366;SDS011;35245;52.026;8.540;2023-03-16T05:01:33;5.70;;;2.63;;
49366;SDS011;35245;52.026;8.540;2023-03-16T05:04:00;7.53;;;3.03;;
49366;SDS011;35245;52.026;8.540;2023-03-16T05:06:29;5.93;;;2.42;;
49366;SDS011;35245;52.026;8.540;2023-03-16T05:08:57;12.88;;;3.40;;
49366;SDS011;35245;52.026;8.540;2023-03-16T05:11:25;8.20;;;3.42;;
49366;SDS011;35245;52.026;8.540;2023-03-16T05:13:53;11.20;;;3.30;;
49366;SDS011;35245;52.026;8.540;2023-03-16T05:16:20;4.45;;;2.40;;
49366;SDS011;35245;52.026;8.540;2023-03-16T05:18:46;9.88;;;3.20;;
49366;SDS011;35245;52.026;8.540;2023-03-16T05:21:13;7.85;;;2.85;;
49366;SDS011;35245;52.026;8.540;2023-03-16T05:23:42;9.63;;;3.55;;
49366;SDS011;35245;52.026;8.540;2023-03-16T05:26:10;9.70;;;3.03;;
49366;SDS011;35245;52.026;8.540;2023-03-16T05:28:38;9.32;;;3.15;;
49366;SDS011;35245;52.026;8.540;2023-03-16T05:31:06;9.18;;;2.97;;
49366;SDS011;35245;52.026;8.540;2023-03-16T05:33:34;8.85;;;3.47;;
49366;SDS011;35245;52.026;8.540;2023-03-16T05:36:01;8.07;;;2.80;;
49366;SDS011;35245;52.026;8.540;2023-03-16T05:38:28;9.05;;;3.15;;
49366;SDS011;35245;52.026;8.540;2023-03-16T05:40:57;5.95;;;2.92;;
49366;SDS011;35245;52.026;8.540;2023-03-16T05:43:26;6.22;;;3.15;;
49366;SDS011;35245;52.026;8.540;2023-03-16T05:45:54;8.40;;;4.20;;
49366;SDS011;35245;52.026;8.540;2023-03-16T05:48:21;6.20;;;3.00;;
49366;SDS011;35245;52.026;8.540;2023-03-16T05:50:50;6.10;;;3.30;;
49366;SDS011;35245;52.026;8.540;2023-03-16T05:53:17;8.63;;;3.72;;
49366;SDS011;35245;52.026;8.540;2023-03-16T05:55:44;7.20;;;3.03;;
49366;SDS011;35245;52.026;8.540;2023-03-16T06:00:44;5.70;;;2.92;;
49366;SDS011;35245;52.026;8.540;2023-03-16T06:03:11;10.82;;;3.50;;
49366;SDS011;35245;52.026;8.540;2023-03-16T06:05:38;10.63;;;3.55;;
49366;SDS011;35245;52.026;8.540;2023-03-16T06:08:05;9.48;;;3.38;;
49366;SDS011;35245;52.026;8.540;2023-03-16T06:10:33;12.75;;;3.55;;
49366;SDS011;35245;52.026;8.540;2023-03-16T06:13:00;11.38;;;3.47;;
49366;SDS011;35245;52.026;8.540;2023-03-16T06:15:28;8.02;;;3.17;;
49366;SDS011;35245;52.026;8.540;2023-03-16T06:17:55;6.55;;;3.08;;
49366;SDS011;35245;52.026;8.540;2023-03-16T06:20:22;9.95;;;4.18;;
49366;SDS011;35245;52.026;8.540;2023-03-16T06:22:49;5.97;;;3.30;;
49366;SDS011;35245;52.026;8.540;2023-03-16T06:25:17;13.02;;;3.35;;
49366;SDS011;35245;52.026;8.540;2023-03-16T06:27:44;10.88;;;3.88;;
49366;SDS011;35245;52.026;8.540;2023-03-16T06:30:13;10.20;;;3.78;;
49366;SDS011;35245;52.026;8.540;2023-03-16T06:32:42;7.47;;;3.75;;
49366;SDS011;35245;52.026;8.540;2023-03-16T06:35:09;8.30;;;4.28;;
49366;SDS011;35245;52.026;8.540;2023-03-16T06:37:37;8.43;;;4.15;;
49366;SDS011;35245;52.026;8.540;2023-03-16T06:40:04;7.82;;;3.45;;
49366;SDS011;35245;52.026;8.540;2023-03-16T06:42:32;7.72;;;3.53;;
49366;SDS011;35245;52.026;8.540;2023-03-16T06:44:59;9.52;;;4.45;;
49366;SDS011;35245;52.026;8.540;2023-03-16T06:47:26;7.57;;;4.20;;
49366;SDS011;35245;52.026;8.540;2023-03-16T06:49:55;13.68;;;3.50;;
49366;SDS011;35245;52.026;8.540;2023-03-16T06:52:22;7.78;;;3.95;;
49366;SDS011;35245;52.026;8.540;2023-03-16T06:54:49;12.23;;;3.78;;
49366;SDS011;35245;52.026;8.540;2023-03-16T06:57:16;7.60;;;3.47;;
49366;SDS011;35245;52.026;8.540;2023-03-16T06:59:43;8.60;;;3.63;;
49366;SDS011;35245;52.026;8.540;2023-03-16T07:02:10;6.43;;;3.35;;
49366;SDS011;35245;52.026;8.540;2023-03-16T07:04:38;7.40;;;3.17;;
49366;SDS011;35245;52.026;8.540;2023-03-16T07:07:07;10.43;;;4.00;;
49366;SDS011;35245;52.026;8.540;2023-03-16T07:09:35;6.50;;;3.33;;
49366;SDS011;35245;52.026;8.540;2023-03-16T07:12:03;7.40;;;3.83;;
49366;SDS011;35245;52.026;8.540;2023-03-16T07:14:30;7.93;;;3.42;;
49366;SDS011;35245;52.026;8.540;2023-03-16T07:16:57;6.40;;;3.58;;
49366;SDS011;35245;52.026;8.540;2023-03-16T07:19:25;10.35;;;3.30;;
49366;SDS011;35245;52.026;8.540;2023-03-16T07:21:52;7.18;;;3.25;;
49366;SDS011;35245;52.026;8.540;2023-03-16T07:24:21;6.90;;;3.30;;
49366;SDS011;35245;52.026;8.540;2023-03-16T07:26:48;6.22;;;3.40;;
49366;SDS011;35245;52.026;8.540;2023-03-16T07:29:14;7.40;;;3.20;;
49366;SDS011;35245;52.026;8.540;2023-03-16T07:31:42;8.13;;;3.50;;
49366;SDS011;35245;52.026;8.540;2023-03-16T07:34:09;7.47;;;2.88;;
49366;SDS011;35245;52.026;8.540;2023-03-16T07:36:36;7.43;;;3.17;;
49366;SDS011;35245;52.026;8.540;2023-03-16T07:39:03;9.52;;;2.75;;
49366;SDS011;35245;52.026;8.540;2023-03-16T07:41:32;7.20;;;2.67;;
49366;SDS011;35245;52.026;8.540;2023-03-16T07:43:59;13.38;;;3.63;;
49366;SDS011;35245;52.026;8.540;2023-03-16T07:46:26;8.18;;;2.85;;
49366;SDS011;35245;52.026;8.540;2023-03-16T07:48:52;5.50;;;2.35;;
49366;SDS011;35245;52.026;8.540;2023-03-16T07:51:19;12.80;;;2.70;;
49366;SDS011;35245;52.026;8.540;2023-03-16T07:53:46;14.57;;;3.20;;
49366;SDS011;35245;52.026;8.540;2023-03-16T07:56:13;6.32;;;2.45;;
49366;SDS011;35245;52.026;8.540;2023-03-16T07:58:42;6.20;;;2.78;;
49366;SDS011;35245;52.026;8.540;2023-03-16T08:01:08;5.65;;;2.25;;
49366;SDS011;35245;52.026;8.540;2023-03-16T08:03:36;7.28;;;2.88;;
49366;SDS011;35245;52.026;8.540;2023-03-16T08:06:03;8.18;;;2.45;;
49366;SDS011;35245;52.026;8.540;2023-03-16T08:08:30;3.58;;;2.25;;
49366;SDS011;35245;52.026;8.540;2023-03-16T08:10:57;7.30;;;2.53;;
49366;SDS011;35245;52.026;8.540;2023-03-16T08:13:24;6.68;;;2.42;;
49366;SDS011;35245;52.026;8.540;2023-03-16T08:15:53;4.60;;;2.05;;
49366;SDS011;35245;52.026;8.540;2023-03-16T08:18:22;6.70;;;2.10;;
49366;SDS011;35245;52.026;8.540;2023-03-16T08:20:50;3.90;;;2.30;;
49366;SDS011;35245;52.026;8.540;2023-03-16T08:23:18;7.05;;;2.50;;
49366;SDS011;35245;52.026;8.540;2023-03-16T08:25:45;4.55;;;2.35;;
49366;SDS011;35245;52.026;8.540;2023-03-16T08:28:13;5.35;;;2.50;;
49366;SDS011;35245;52.026;8.540;2023-03-16T08:30:43;4.28;;;2.00;;
49366;SDS011;35245;52.026;8.540;2023-03-16T08:33:12;4.90;;;2.33;;
49366;SDS011;35245;52.026;8.540;2023-03-16T08:35:42;13.60;;;2.80;;
49366;SDS011;35245;52.026;8.540;2023-03-16T08:38:10;13.82;;;2.63;;
49366;SDS011;35245;52.026;8.540;2023-03-16T08:40:38;7.20;;;2.25;;
49366;SDS011;35245;52.026;8.540;2023-03-16T08:43:10;7.68;;;2.72;;
49366;SDS011;35245;52.026;8.540;2023-03-16T08:45:37;4.10;;;2.20;;
49366;SDS011;35245;52.026;8.540;2023-03-16T08:48:04;6.10;;;2.45;;
49366;SDS011;35245;52.026;8.540;2023-03-16T08:50:33;13.57;;;3.50;;
49366;SDS011;35245;52.026;8.540;2023-03-16T08:53:00;8.20;;;2.75;;
49366;SDS011;35245;52.026;8.540;2023-03-16T08:55:27;5.28;;;2.83;;
49366;SDS011;35245;52.026;8.540;2023-03-16T08:57:54;3.47;;;2.10;;
49366;SDS011;35245;52.026;8.540;2023-03-16T09:00:21;6.07;;;2.92;;
49366;SDS011;35245;52.026;8.540;2023-03-16T09:02:48;6.10;;;2.90;;
49366;SDS011;35245;52.026;8.540;2023-03-16T09:05:16;7.18;;;2.55;;
49366;SDS011;35245;52.026;8.540;2023-03-16T09:07:44;10.45;;;2.58;;
49366;SDS011;35245;52.026;8.540;2023-03-16T09:10:12;4.95;;;2.55;;
49366;SDS011;35245;52.026;8.540;2023-03-16T09:12:40;5.38;;;2.38;;
49366;SDS011;35245;52.026;8.540;2023-03-16T09:15:07;8.85;;;3.10;;
49366;SDS011;35245;52.026;8.540;2023-03-16T09:17:36;7.00;;;2.63;;
49366;SDS011;35245;52.026;8.540;2023-03-16T09:20:03;7.03;;;2.20;;
49366;SDS011;35245;52.026;8.540;2023-03-16T09:22:33;5.55;;;2.60;;
49366;SDS011;35245;52.026;8.540;2023-03-16T09:25:02;4.85;;;2.40;;
49366;SDS011;35245;52.026;8.540;2023-03-16T09:27:29;7.20;;;2.58;;
49366;SDS011;35245;52.026;8.540;2023-03-16T09:29:57;5.95;;;2.90;;
49366;SDS011;35245;52.026;8.540;2023-03-16T09:32:25;4.57;;;2.70;;
49366;SDS011;35245;52.026;8.540;2023-03-16T09:34:52;4.70;;;2.65;;
49366;SDS011;35245;52.026;8.540;2023-03-16T09:37:19;5.35;;;2.97;;
49366;SDS011;35245;52.026;8.540;2023-03-16T09:39:46;4.18;;;2.45;;
49366;SDS011;35245;52.026;8.540;2023-03-16T09:42:16;4.93;;;2.80;;
49366;SDS011;35245;52.026;8.540;2023-03-16T09:44:49;5.38;;;2.78;;
49366;SDS011;35245;52.026;8.540;2023-03-16T09:47:24;9.02;;;2.63;;
49366;SDS011;35245;52.026;8.540;2023-03-16T09:49:53;7.28;;;3.00;;
49366;SDS011;35245;52.026;8.540;2023-03-16T09:52:24;6.95;;;2.75;;
49366;SDS011;35245;52.026;8.540;2023-03-16T09:54:58;6.30;;;3.42;;
49366;SDS011;35245;52.026;8.540;2023-03-16T09:57:29;4.85;;;2.85;;
49366;SDS011;35245;52.026;8.540;2023-03-16T09:59:59;6.35;;;3.25;;
49366;SDS011;35245;52.026;8.540;2023-03-16T10:02:55;5.80;;;3.17;;
49366;SDS011;35245;52.026;8.540;2023-03-16T10:05:28;6.32;;;3.03;;
49366;SDS011;35245;52.026;8.540;2023-03-16T10:07:58;5.38;;;2.80;;
49366;SDS011;35245;52.026;8.540;2023-03-16T10:10:35;10.43;;;3.13;;
49366;SDS011;35245;52.026;8.540;2023-03-16T10:13:22;5.90;;;2.83;;
49366;SDS011;35245;52.026;8.540;2023-03-16T10:15:55;6.60;;;2.90;;
49366;SDS011;35245;52.026;8.540;2023-03-16T10:18:25;6.25;;;2.75;;
49366;SDS011;35245;52.026;8.540;2023-03-16T10:20:54;5.35;;;3.10;;
49366;SDS011;35245;52.026;8.540;2023-03-16T10:23:23;5.40;;;2.72;;
49366;SDS011;35245;52.026;8.540;2023-03-16T10:25:51;5.43;;;2.63;;
49366;SDS011;35245;52.026;8.540;2023-03-16T10:28:20;12.82;;;3.58;;
49366;SDS011;35245;52.026;8.540;2023-03-16T10:30:51;6.07;;;2.95;;
49366;SDS011;35245;52.026;8.540;2023-03-16T10:33:20;4.43;;;2.78;;
49366;SDS011;35245;52.026;8.540;2023-03-16T10:35:50;4.32;;;2.90;;
49366;SDS011;35245;52.026;8.540;2023-03-16T10:38:27;3.63;;;2.40;;
49366;SDS011;35245;52.026;8.540;2023-03-16T10:40:58;5.35;;;2.70;;
49366;SDS011;35245;52.026;8.540;2023-03-16T10:43:26;6.38;;;3.05;;
49366;SDS011;35245;52.026;8.540;2023-03-16T10:45:57;7.38;;;3.08;;
49366;SDS011;35245;52.026;8.540;2023-03-16T10:50:53;4.90;;;2.80;;
49366;SDS011;35245;52.026;8.540;2023-03-16T10:53:22;6.25;;;3.35;;
49366;SDS011;35245;52.026;8.540;2023-03-16T10:55:55;8.90;;;3.60;;
49366;SDS011;35245;52.026;8.540;2023-03-16T10:58:23;5.03;;;2.70;;
49366;SDS011;35245;52.026;8.540;2023-03-16T11:00:52;4.93;;;2.95;;
49366;SDS011;35245;52.026;8.540;2023-03-16T11:03:20;5.15;;;3.10;;
49366;SDS011;35245;52.026;8.540;2023-03-16T11:05:55;5.78;;;3.00;;
49366;SDS011;35245;52.026;8.540;2023-03-16T11:08:25;9.27;;;3.10;;
49366;SDS011;35245;52.026;8.540;2023-03-16T11:10:53;7.85;;;3.50;;
49366;SDS011;35245;52.026;8.540;2023-03-16T11:13:23;7.22;;;3.53;;
49366;SDS011;35245;52.026;8.540;2023-03-16T11:15:55;4.75;;;2.90;;
49366;SDS011;35245;52.026;8.540;2023-03-16T11:18:27;8.35;;;3.08;;
49366;SDS011;35245;52.026;8.540;2023-03-16T11:20:55;10.25;;;2.80;;
49366;SDS011;35245;52.026;8.540;2023-03-16T11:23:28;5.22;;;3.17;;
49366;SDS011;35245;52.026;8.540;2023-03-16T11:25:57;6.07;;;3.20;;
49366;SDS011;35245;52.026;8.540;2023-03-16T11:28:31;4.40;;;2.70;;
49366;SDS011;35245;52.026;8.540;2023-03-16T11:31:05;6.47;;;2.83;;
49366;SDS011;35245;52.026;8.540;2023-03-16T11:33:38;7.47;;;3.92;;
49366;SDS011;35245;52.026;8.540;2023-03-16T11:36:10;5.80;;;3.20;;
49366;SDS011;35245;52.026;8.540;2023-03-16T11:38:45;6.75;;;2.75;;
49366;SDS011;35245;52.026;8.540;2023-03-16T11:41:17;9.90;;;4.00;;
49366;SDS011;35245;52.026;8.540;2023-03-16T11:43:49;7.28;;;3.40;;
49366;SDS011;35245;52.026;8.540;2023-03-16T11:46:20;6.53;;;2.95;;
49366;SDS011;35245;52.026;8.540;2023-03-16T11:49:07;4.80;;;3.00;;
49366;SDS011;35245;52.026;8.540;2023-03-16T11:51:46;4.25;;;3.00;;
49366;SDS011;35245;52.026;8.540;2023-03-16T11:54:24;6.10;;;3.17;;
49366;SDS011;35245;52.026;8.540;2023-03-16T11:57:00;5.32;;;3.10;;
49366;SDS011;35245;52.026;8.540;2023-03-16T11:59:35;4.35;;;2.60;;
49366;SDS011;35245;52.026;8.540;2023-03-16T12:02:38;6.53;;;3.40;;
49366;SDS011;35245;52.026;8.540;2023-03-16T12:05:19;9.63;;;4.20;;
49366;SDS011;35245;52.026;8.540;2023-03-16T12:07:53;6.50;;;3.20;;
49366;SDS011;35245;52.026;8.540;2023-03-16T12:10:28;8.32;;;3.72;;
49366;SDS011;35245;52.026;8.540;2023-03-16T12:13:01;7.07;;;3.83;;
49366;SDS011;35245;52.026;8.540;2023-03-16T12:15:36;11.40;;;5.10;;
49366;SDS011;35245;52.026;8.540;2023-03-16T12:18:12;7.00;;;3.15;;
49366;SDS011;35245;52.026;8.540;2023-03-16T12:20:50;9.02;;;4.30;;
49366;SDS011;35245;52.026;8.540;2023-03-16T12:23:19;8.20;;;3.00;;
49366;SDS011;35245;52.026;8.540;2023-03-16T12:25:49;4.13;;;2.88;;
49366;SDS011;35245;52.026;8.540;2023-03-16T12:28:19;5.72;;;3.00;;
49366;SDS011;35245;52.026;8.540;2023-03-16T12:30:49;4.25;;;2.50;;
49366;SDS011;35245;52.026;8.540;2023-03-16T12:33:27;6.35;;;2.42;;
49366;SDS011;35245;52.026;8.540;2023-03-16T12:36:02;9.68;;;3.85;;
49366;SDS011;35245;52.026;8.540;2023-03-16T12:38:36;6.63;;;3.60;;
49366;SDS011;35245;52.026;8.540;2023-03-16T12:41:14;5.07;;;2.53;;
49366;SDS011;35245;52.026;8.540;2023-03-16T12:46:37;5.05;;;2.75;;
49366;SDS011;35245;52.026;8.540;2023-03-16T12:49:09;7.63;;;2.72;;
49366;SDS011;35245;52.026;8.540;2023-03-16T12:51:37;8.63;;;2.95;;
49366;SDS011;35245;52.026;8.540;2023-03-16T12:54:05;5.90;;;2.75;;
49366;SDS011;35245;52.026;8.540;2023-03-16T12:56:44;5.25;;;2.45;;
49366;SDS011;35245;52.026;8.540;2023-03-16T12:59:14;3.60;;;2.40;;
49366;SDS011;35245;52.026;8.540;2023-03-16T13:01:44;5.57;;;2.13;;
49366;SDS011;35245;52.026;8.540;2023-03-16T13:04:15;4.78;;;2.60;;
49366;SDS011;35245;52.026;8.540;2023-03-16T13:06:45;4.40;;;2.47;;
49366;SDS011;35245;52.026;8.540;2023-03-16T13:09:16;4.32;;;2.20;;
49366;SDS011;35245;52.026;8.540;2023-03-16T13:11:46;2.42;;;1.88;;
49366;SDS011;35245;52.026;8.540;2023-03-16T13:14:16;3.20;;;2.25;;
49366;SDS011;35245;52.026;8.540;2023-03-16T13:17:03;4.90;;;2.38;;
49366;SDS011;35245;52.026;8.540;2023-03-16T13:19:32;5.80;;;2.40;;
49366;SDS011;35245;52.026;8.540;2023-03-16T13:22:17;2.63;;;2.00;;
49366;SDS011;35245;52.026;8.540;2023-03-16T13:24:49;4.25;;;2.00;;
49366;SDS011;35245;52.026;8.540;2023-03-16T13:27:21;6.15;;;2.17;;
49366;SDS011;35245;52.026;8.540;2023-03-16T13:29:52;3.08;;;2.00;;
49366;SDS011;35245;52.026;8.540;2023-03-16T13:32:21;6.30;;;2.40;;
49366;SDS011;35245;52.026;8.540;2023-03-16T13:34:50;5.35;;;2.90;;
49366;SDS011;35245;52.026;8.540;2023-03-16T13:37:19;6.60;;;3.13;;
49366;SDS011;35245;52.026;8.540;2023-03-16T13:39:51;8.40;;;2.90;;
49366;SDS011;35245;52.026;8.540;2023-03-16T13:42:19;4.43;;;2.30;;
49366;SDS011;35245;52.026;8.540;2023-03-16T13:44:47;4.65;;;2.58;;
49366;SDS011;35245;52.026;8.540;2023-03-16T13:47:17;7.00;;;2.95;;
49366;SDS011;35245;52.026;8.540;2023-03-16T13:49:45;4.55;;;1.98;;
49366;SDS011;35245;52.026;8.540;2023-03-16T13:52:15;3.67;;;2.15;;
49366;SDS011;35245;52.026;8.540;2023-03-16T13:54:48;6.28;;;3.85;;
49366;SDS011;35245;52.026;8.540;2023-03-16T13:57:17;4.47;;;2.50;;
49366;SDS011;35245;52.026;8.540;2023-03-16T13:59:46;6.05;;;3.22;;
49366;SDS011;35245;52.026;8.540;2023-03-16T14:02:15;5.47;;;2.67;;
49366;SDS011;35245;52.026;8.540;2023-03-16T14:04:43;7.90;;;2.88;;
49366;SDS011;35245;52.026;8.540;2023-03-16T14:07:16;5.45;;;2.75;;
49366;SDS011;35245;52.026;8.540;2023-03-16T14:09:44;4.85;;;2.55;;
49366;SDS011;35245;52.026;8.540;2023-03-16T14:12:14;3.67;;;2.40;;
49366;SDS011;35245;52.026;8.540;2023-03-16T14:14:44;5.32;;;2.47;;
49366;SDS011;35245;52.026;8.540;2023-03-16T14:17:15;2.67;;;1.90;;
49366;SDS011;35245;52.026;8.540;2023-03-16T14:19:44;3.45;;;2.00;;
49366;SDS011;35245;52.026;8.540;2023-03-16T14:22:15;3.58;;;2.42;;
49366;SDS011;35245;52.026;8.540;2023-03-16T14:24:43;4.18;;;2.30;;
49366;SDS011;35245;52.026;8.540;2023-03-16T14:27:18;3.75;;;2.17;;
49366;SDS011;35245;52.026;8.540;2023-03-16T14:29:52;4.68;;;2.10;;
49366;SDS011;35245;52.026;8.540;2023-03-16T14:32:22;4.22;;;2.40;;
49366;SDS011;35245;52.026;8.540;2023-03-16T14:34:52;3.83;;;2.10;;
49366;SDS011;35245;52.026;8.540;2023-03-16T14:37:34;11.30;;;2.60;;
49366;SDS011;35245;52.026;8.540;2023-03-16T14:40:04;15.27;;;3.00;;
49366;SDS011;35245;52.026;8.540;2023-03-16T14:42:33;4.63;;;2.42;;
49366;SDS011;35245;52.026;8.540;2023-03-16T14:45:01;21.58;;;3.30;;
49366;SDS011;35245;52.026;8.540;2023-03-16T14:47:30;4.50;;;2.08;;
49366;SDS011;35245;52.026;8.540;2023-03-16T14:52:31;3.10;;;1.15;;
49366;SDS011;35245;52.026;8.540;2023-03-16T14:55:00;5.13;;;1.90;;
49366;SDS011;35245;52.026;8.540;2023-03-16T14:57:35;3.28;;;2.13;;
49366;SDS011;35245;52.026;8.540;2023-03-16T15:00:03;3.65;;;1.92;;
49366;SDS011;35245;52.026;8.540;2023-03-16T15:02:32;4.60;;;2.08;;
49366;SDS011;35245;52.026;8.540;2023-03-16T15:05:00;2.67;;;1.90;;
49366;SDS011;35245;52.026;8.540;2023-03-16T15:07:28;3.78;;;2.30;;
49366;SDS011;35245;52.026;8.540;2023-03-16T15:09:58;4.40;;;2.10;;